Mn Pelican — FMLR — position and weather

sailwx.info

Track history (hours):
 
Tides and Currents Weather Stations Pressure Air Temp Water Temp Dewpoint Dewpoint Depression Visibility Wind Speed Wind Dir Waves Ship Positions

Mn Pelican

Last reported at 2016-May-03 23:33 UTC. Time now 2016-May-03 23:52 UTC.
Position N 50°32' W 001°56'.

Length 155 m; draft 6.2 m.

Type: Ship. MMSI: 228315700.

Date/timePositionNaut miles runAvg speedWind from/ knotsBaromVisibWave heightAir tempDewpointWater temp
2016-May-03 23:33N 50°32' W 001°56'1010.2
2016-May-03 22:34N 50°42' W 001°59'0 0.2
2016-May-03 21:32N 50°42' W 001°59'0 0.0
2016-May-03 20:28N 50°42' W 001°59'0 0.0
2016-May-03 19:31N 50°42' W 001°59'0 0.0
2016-May-03 18:33N 50°42' W 001°59'0 0.0
2016-May-03 17:30N 50°42' W 001°59'1 0.8
2016-May-03 16:33N 50°42' W 001°58'1312.6
2016-May-03 15:33N 50°30' W 001°52'  
2016-Apr-30 21:27N 49°52' W 003°38'1314.5
2016-Apr-30 20:33N 49°59' W 003°21'1514.9
2016-Apr-30 19:33N 50°07' W 003°01'1515.4
2016-Apr-30 18:33N 50°14' W 002°40'1815.2
2016-Apr-30 17:22N 50°22' W 002°15'1314.5
2016-Apr-30 16:27N 50°30' W 001°58'1011.4
2016-Apr-30 15:33N 50°41' W 001°56'3 2.6
2016-Apr-30 14:28N 50°42' W 001°59'0 0.0
2016-Apr-30 13:31N 50°42' W 001°59'0 0.0
2016-Apr-30 12:25N 50°42' W 001°59'0 0.0
2016-Apr-30 11:33N 50°42' W 001°59'0 0.0
2016-Apr-30 10:33N 50°42' W 001°59'0 0.0
2016-Apr-30 09:29N 50°42' W 001°59'1 0.7
2016-Apr-30 08:33N 50°42' W 001°58'9 8.5
2016-Apr-30 07:33N 50°35' W 001°52'9 8.7
2016-Apr-30 06:33N 50°27' W 001°55'  
2016-Apr-27 04:33N 49°53' W 003°34'1616.5
2016-Apr-27 03:34N 50°02' W 003°13'1616.4
2016-Apr-27 02:33N 50°11' W 002°51'4314.4
2016-Apr-26 23:33N 50°34' W 001°54'10 9.5
2016-Apr-26 22:33N 50°42' W 001°59'0 0.1
2016-Apr-26 21:32N 50°42' W 001°59'0 0.0
2016-Apr-26 20:31N 50°42' W 001°59'0 0.0
2016-Apr-26 19:31N 50°42' W 001°59'0 0.0
2016-Apr-26 18:30N 50°42' W 001°59'0 0.0
2016-Apr-26 17:33N 50°42' W 001°59'0 0.0
2016-Apr-26 16:33N 50°42' W 001°59'6 6.4
2016-Apr-26 15:33N 50°37' W 001°54'  
Track history (hours):
 
Tides and Currents Weather Stations Pressure Air Temp Water Temp Dewpoint Dewpoint Depression Visibility Wind Speed Wind Dir Waves Ship Positions

Mn Pelican

Last reported at 2016-May-03 23:33 UTC. Time now 2016-May-03 23:52 UTC.
Position N 50°32' W 001°56'.

Length 155 m; draft 6.2 m.

Type: Ship. MMSI: 228315700.

Date/timePositionNaut miles runAvg speedWind from/ knotsBaromVisibWave heightAir tempDewpointWater temp
2016-May-03 23:33N 50°32' W 001°56'1010.2
2016-May-03 22:34N 50°42' W 001°59'0 0.2
2016-May-03 21:32N 50°42' W 001°59'0 0.0
2016-May-03 20:28N 50°42' W 001°59'0 0.0
2016-May-03 19:31N 50°42' W 001°59'0 0.0
2016-May-03 18:33N 50°42' W 001°59'0 0.0
2016-May-03 17:30N 50°42' W 001°59'1 0.8
2016-May-03 16:33N 50°42' W 001°58'1312.6
2016-May-03 15:33N 50°30' W 001°52'  
2016-Apr-30 21:27N 49°52' W 003°38'1314.5
2016-Apr-30 20:33N 49°59' W 003°21'1514.9
2016-Apr-30 19:33N 50°07' W 003°01'1515.4
2016-Apr-30 18:33N 50°14' W 002°40'1815.2
2016-Apr-30 17:22N 50°22' W 002°15'1314.5
2016-Apr-30 16:27N 50°30' W 001°58'1011.4
2016-Apr-30 15:33N 50°41' W 001°56'3 2.6
2016-Apr-30 14:28N 50°42' W 001°59'0 0.0
2016-Apr-30 13:31N 50°42' W 001°59'0 0.0
2016-Apr-30 12:25N 50°42' W 001°59'0 0.0
2016-Apr-30 11:33N 50°42' W 001°59'0 0.0
2016-Apr-30 10:33N 50°42' W 001°59'0 0.0
2016-Apr-30 09:29N 50°42' W 001°59'1 0.7
2016-Apr-30 08:33N 50°42' W 001°58'9 8.5
2016-Apr-30 07:33N 50°35' W 001°52'9 8.7
2016-Apr-30 06:33N 50°27' W 001°55'  
2016-Apr-27 04:33N 49°53' W 003°34'1616.5
2016-Apr-27 03:34N 50°02' W 003°13'1616.4
2016-Apr-27 02:33N 50°11' W 002°51'4314.4
2016-Apr-26 23:33N 50°34' W 001°54'10 9.5
2016-Apr-26 22:33N 50°42' W 001°59'0 0.1
2016-Apr-26 21:32N 50°42' W 001°59'0 0.0
2016-Apr-26 20:31N 50°42' W 001°59'0 0.0
2016-Apr-26 19:31N 50°42' W 001°59'0 0.0
2016-Apr-26 18:30N 50°42' W 001°59'0 0.0
2016-Apr-26 17:33N 50°42' W 001°59'0 0.0
2016-Apr-26 16:33N 50°42' W 001°59'6 6.4
2016-Apr-26 15:33N 50°37' W 001°54'  

Dump ship's entire track history